METAR Data
IDs: Format: Raw Decoded Include TAF

Data at: 0902 UTC 09 Apr 2020

METAR for:KRYW (Lago Vista/Allen Arp, TX, US)
Text:KRYW 090855Z AUTO 22004KT 10SM CLR 24/22 A2988 RMK AO2 T02410216
Temperature: 24.1°C ( 75°F)
Dewpoint: 21.6°C ( 71°F) [RH = 86%]
Pressure (altimeter):29.88 inches Hg (1011.9 mb)
Winds:from the SW (220 degrees) at 5 MPH (4 knots; 2.1 m/s)
Visibility:10 or more sm (16+ km)
Ceiling:at least 12,000 feet AGL
Clouds:sky clear below 12,000 feet AGL
QC Flag:automated observation with no human augmentation